createdAt,value
2018-11-05T00:01:17.762Z,11.50
2018-11-05T00:06:26.220Z,11.40
2018-11-05T00:11:34.542Z,11.50
2018-11-05T00:16:42.930Z,11.50
2018-11-05T00:21:51.199Z,11.50
2018-11-05T00:26:59.518Z,11.50
2018-11-05T00:32:08.540Z,11.50
2018-11-05T00:37:16.950Z,11.50
2018-11-05T00:42:25.308Z,11.50
2018-11-05T00:47:33.714Z,11.50
2018-11-05T00:52:42.080Z,11.50
2018-11-05T00:57:50.540Z,11.50
2018-11-05T01:02:58.843Z,11.50
2018-11-05T01:08:07.063Z,11.50
2018-11-05T01:13:15.387Z,11.50
2018-11-05T01:18:23.902Z,11.50
2018-11-05T01:23:32.338Z,11.50
2018-11-05T01:28:40.786Z,11.40
2018-11-05T01:33:49.110Z,11.40
2018-11-05T01:38:57.549Z,11.50
2018-11-05T01:44:05.842Z,11.50
2018-11-05T01:49:14.122Z,11.40
2018-11-05T01:54:22.502Z,11.40
2018-11-05T01:59:30.975Z,11.40
2018-11-05T02:04:39.314Z,11.40
2018-11-05T02:09:47.538Z,11.40
2018-11-05T02:14:55.859Z,11.40
2018-11-05T02:20:04.942Z,11.30
2018-11-05T02:25:13.629Z,11.30
2018-11-05T02:30:21.983Z,11.30
2018-11-05T02:35:30.407Z,11.30
2018-11-05T02:40:38.722Z,11.30
2018-11-05T02:45:47.049Z,11.30
2018-11-05T02:50:55.688Z,11.30
2018-11-05T02:56:05.222Z,11.30
2018-11-05T03:01:13.676Z,11.30
2018-11-05T03:06:22.085Z,11.20
2018-11-05T03:11:30.498Z,11.10
2018-11-05T03:16:38.866Z,11.10
2018-11-05T03:21:47.330Z,11.20
2018-11-05T03:26:55.546Z,11.20
2018-11-05T03:32:04.118Z,11.30
2018-11-05T03:37:12.575Z,11.30
2018-11-05T03:42:21.194Z,11.30
2018-11-05T03:47:29.547Z,11.30
2018-11-05T03:52:38.049Z,11.20
2018-11-05T03:57:46.359Z,11.20
2018-11-05T04:02:54.870Z,11.20
2018-11-05T04:08:03.150Z,11.10
2018-11-05T04:13:11.644Z,11.10
2018-11-05T04:18:20.112Z,11.10
2018-11-05T04:23:28.489Z,11.00
2018-11-05T04:28:36.859Z,11.00
2018-11-05T04:33:45.166Z,11.10
2018-11-05T04:38:53.782Z,11.10
2018-11-05T04:44:02.242Z,11.10
2018-11-05T04:49:10.506Z,11.10
2018-11-05T04:54:18.829Z,11.10
2018-11-05T04:59:27.305Z,11.10
2018-11-05T05:04:35.637Z,11.10
2018-11-05T05:09:43.934Z,11.10
2018-11-05T05:14:52.382Z,11.10
2018-11-05T05:20:00.809Z,11.00
2018-11-05T05:25:09.343Z,11.00
2018-11-05T05:30:18.722Z,11.00
2018-11-05T05:35:28.611Z,11.00
2018-11-05T05:40:37.099Z,11.00
2018-11-05T05:45:45.537Z,11.10
2018-11-05T05:50:53.826Z,11.20
2018-11-05T05:56:02.450Z,11.20
2018-11-05T06:01:11.061Z,11.20
2018-11-05T06:06:19.590Z,11.20
2018-11-05T06:11:27.975Z,11.30
2018-11-05T06:16:36.761Z,11.30
2018-11-05T06:21:45.056Z,11.20
2018-11-05T06:26:53.485Z,11.10
2018-11-05T06:32:01.891Z,11.10
2018-11-05T06:37:10.366Z,11.10
2018-11-05T06:42:18.809Z,11.10
2018-11-05T06:47:27.126Z,11.10
2018-11-05T06:52:35.707Z,11.20
2018-11-05T06:57:44.089Z,11.10
2018-11-05T07:02:52.510Z,11.30
2018-11-05T07:08:01.047Z,11.30
2018-11-05T07:13:09.377Z,11.30
2018-11-05T07:18:17.887Z,11.40
2018-11-05T07:23:26.470Z,11.50
2018-11-05T07:28:35.025Z,11.50
2018-11-05T07:33:43.674Z,11.50
2018-11-05T07:38:52.130Z,11.50
2018-11-05T07:44:00.684Z,11.50
2018-11-05T07:49:08.999Z,11.40
2018-11-05T07:54:17.530Z,11.50
2018-11-05T07:59:25.826Z,11.70
2018-11-05T08:04:34.415Z,11.70
2018-11-05T08:09:42.762Z,11.70
2018-11-05T08:14:51.249Z,11.70
2018-11-05T08:19:59.682Z,11.80
2018-11-05T08:25:09.094Z,11.90
2018-11-05T08:30:19.069Z,11.80
2018-11-05T08:35:27.670Z,12.00
2018-11-05T08:40:36.126Z,12.10
2018-11-05T08:45:44.474Z,12.20
2018-11-05T08:50:53.174Z,12.30
2018-11-05T08:56:01.511Z,12.40
2018-11-05T09:01:16.724Z,12.70
2018-11-05T09:06:25.075Z,12.80
2018-11-05T09:11:33.969Z,12.70
2018-11-05T09:16:42.012Z,12.70
2018-11-05T09:21:50.562Z,13.00
2018-11-05T09:26:59.025Z,13.30
2018-11-05T09:32:07.558Z,13.90
2018-11-05T09:37:16.106Z,14.10
2018-11-05T09:42:24.570Z,14.10
2018-11-05T09:47:33.110Z,14.30
2018-11-05T09:52:41.657Z,14.20
2018-11-05T09:57:50.129Z,14.40
2018-11-05T10:03:02.026Z,15.90
2018-11-05T10:08:10.282Z,15.60
2018-11-05T10:13:18.954Z,14.90
2018-11-05T10:18:27.469Z,15.20
2018-11-05T10:23:35.915Z,14.90
2018-11-05T10:28:44.550Z,14.70
2018-11-05T10:33:53.783Z,14.40
2018-11-05T10:39:02.642Z,14.20
2018-11-05T10:44:11.446Z,14.00
2018-11-05T10:49:20.105Z,14.00
2018-11-05T10:54:28.705Z,14.20
2018-11-05T10:59:37.198Z,14.50
2018-11-05T11:04:45.774Z,14.50
2018-11-05T11:09:54.397Z,14.40
2018-11-05T11:15:03.036Z,14.40
2018-11-05T11:20:12.790Z,14.30
2018-11-05T11:25:21.419Z,14.10
2018-11-05T11:30:30.081Z,14.00
2018-11-05T11:35:38.586Z,14.30
2018-11-05T11:40:47.201Z,14.50
2018-11-05T11:45:55.839Z,14.50
2018-11-05T11:51:04.682Z,14.40
2018-11-05T11:56:13.090Z,14.40
2018-11-05T12:01:21.754Z,14.50
2018-11-05T12:06:30.426Z,14.70
2018-11-05T12:11:39.046Z,14.80
2018-11-05T12:16:47.658Z,14.60
2018-11-05T12:21:56.312Z,14.50
2018-11-05T12:27:04.959Z,14.40
2018-11-05T12:32:13.658Z,14.40
2018-11-05T12:37:22.240Z,14.40
2018-11-05T12:42:31.102Z,14.40
2018-11-05T12:47:39.942Z,14.70
2018-11-05T12:52:49.370Z,14.90
2018-11-05T12:57:58.110Z,15.00
2018-11-05T13:03:06.814Z,14.90
2018-11-05T13:08:15.426Z,14.80
2018-11-05T13:13:23.970Z,14.80
2018-11-05T13:18:32.439Z,14.70
2018-11-05T13:23:44.922Z,14.50
2018-11-05T13:28:53.663Z,14.40
2018-11-05T13:34:02.314Z,14.30
2018-11-05T13:39:10.954Z,14.40
2018-11-05T13:44:19.922Z,14.40
2018-11-05T13:49:28.643Z,14.50
2018-11-05T13:54:37.321Z,14.40
2018-11-05T13:59:45.743Z,14.40
2018-11-05T14:04:54.306Z,14.50
2018-11-05T14:10:03.061Z,14.40
2018-11-05T14:15:11.746Z,14.40
2018-11-05T14:20:20.618Z,14.40
2018-11-05T14:25:29.299Z,14.40
2018-11-05T14:30:37.858Z,14.40
2018-11-05T14:35:46.297Z,14.50
2018-11-05T14:40:54.946Z,14.30
2018-11-05T14:46:03.566Z,14.40
2018-11-05T14:51:12.275Z,14.50
2018-11-05T14:56:21.045Z,14.40
2018-11-05T15:01:29.789Z,14.40
2018-11-05T15:06:38.398Z,14.40
2018-11-05T15:11:47.162Z,14.40
2018-11-05T15:16:55.711Z,14.40
2018-11-05T15:22:04.542Z,14.40
2018-11-05T15:27:13.262Z,14.30
2018-11-05T15:32:22.030Z,14.20
2018-11-05T15:37:30.675Z,14.10
2018-11-05T15:42:39.457Z,14.10
2018-11-05T15:47:48.062Z,14.00
2018-11-05T15:52:57.287Z,13.90
2018-11-05T15:58:05.508Z,13.80
2018-11-05T16:03:14.304Z,13.80
2018-11-05T16:08:22.936Z,13.70
2018-11-05T16:13:31.584Z,13.60
2018-11-05T16:18:40.590Z,13.50
2018-11-05T16:23:49.167Z,13.50
2018-11-05T16:28:57.788Z,13.40
2018-11-05T16:34:06.380Z,13.20
2018-11-05T16:39:15.150Z,13.10
2018-11-05T16:44:23.797Z,13.00
2018-11-05T16:49:32.574Z,13.00
2018-11-05T16:54:41.186Z,13.00
2018-11-05T16:59:49.834Z,12.80
2018-11-05T17:04:58.439Z,12.80
2018-11-05T17:10:08.615Z,12.60
2018-11-05T17:15:17.111Z,12.50
2018-11-05T17:20:25.739Z,12.30
2018-11-05T17:25:34.050Z,12.20
2018-11-05T17:30:42.564Z,12.10
2018-11-05T17:35:44.889Z,12.00
2018-11-05T17:40:47.134Z,11.90
2018-11-05T17:45:49.414Z,11.80
2018-11-05T17:50:51.730Z,11.60
2018-11-05T17:55:53.905Z,11.50
2018-11-05T18:00:56.170Z,11.40
2018-11-05T18:05:58.409Z,11.40
2018-11-05T18:11:00.662Z,11.20
2018-11-05T18:16:02.943Z,11.20
2018-11-05T18:21:05.293Z,10.90
2018-11-05T18:26:07.586Z,11.00
2018-11-05T18:31:09.928Z,11.00
2018-11-05T18:36:12.126Z,11.00
2018-11-05T18:41:14.387Z,10.80
2018-11-05T18:46:16.699Z,10.70
2018-11-05T18:51:19.155Z,10.60
2018-11-05T18:56:21.720Z,10.50
2018-11-05T19:01:24.333Z,10.50
2018-11-05T19:06:26.922Z,10.30
2018-11-05T19:11:29.464Z,10.40
2018-11-05T19:16:32.155Z,10.00
2018-11-05T19:21:34.731Z,9.90
2018-11-05T19:26:37.383Z,10.00
2018-11-05T19:31:39.710Z,10.10
2018-11-05T19:36:41.971Z,10.00
2018-11-05T19:41:45.016Z,10.00
2018-11-05T19:46:47.235Z,9.90
2018-11-05T19:51:49.506Z,9.80
2018-11-05T19:56:52.822Z,9.70
2018-11-05T20:01:55.122Z,9.60
2018-11-05T20:06:57.374Z,9.50
2018-11-05T20:12:00.491Z,9.20
2018-11-05T20:17:03.013Z,9.00
2018-11-05T20:22:05.460Z,9.00
2018-11-05T20:27:07.771Z,9.10
2018-11-05T20:32:10.469Z,9.10
2018-11-05T20:37:12.338Z,8.90
2018-11-05T20:42:14.710Z,8.90
2018-11-05T20:47:17.022Z,9.00
2018-11-05T20:52:19.393Z,9.10
2018-11-05T20:57:21.734Z,9.10
2018-11-05T21:02:24.043Z,9.00
2018-11-05T21:07:26.346Z,8.90
2018-11-05T21:12:28.746Z,8.80
2018-11-05T21:17:31.031Z,8.80
2018-11-05T21:22:33.410Z,8.70
2018-11-05T21:27:35.633Z,8.70
2018-11-05T21:32:38.135Z,8.70
2018-11-05T21:37:40.729Z,8.70
2018-11-05T21:42:43.022Z,8.70
2018-11-05T21:47:45.631Z,8.60
2018-11-05T21:52:48.221Z,8.50
2018-11-05T21:57:50.638Z,8.50
2018-11-05T22:02:58.815Z,8.50
2018-11-05T22:08:01.070Z,8.50
2018-11-05T22:13:03.933Z,8.40
2018-11-05T22:18:06.230Z,8.30
2018-11-05T22:23:08.481Z,8.30
2018-11-05T22:28:10.757Z,8.20
2018-11-05T22:33:13.054Z,8.20
2018-11-05T22:38:15.395Z,8.10
2018-11-05T22:43:17.685Z,8.20
2018-11-05T22:48:19.966Z,8.10
2018-11-05T22:53:22.278Z,8.00
2018-11-05T22:58:24.722Z,8.00
2018-11-05T23:03:28.258Z,7.70
2018-11-05T23:08:30.637Z,7.60
2018-11-05T23:13:32.991Z,7.60
2018-11-05T23:18:35.358Z,7.60
2018-11-05T23:23:37.654Z,7.50
2018-11-05T23:28:40.023Z,7.30
2018-11-05T23:33:42.529Z,7.20
2018-11-05T23:38:44.809Z,7.20
2018-11-05T23:43:47.082Z,6.90
2018-11-05T23:48:49.410Z,6.90
2018-11-05T23:53:51.685Z,6.80
2018-11-05T23:58:53.986Z,6.80
